Time;durP1;ratioP1;P1;durP2;ratioP2;P2;SDS_P1;SDS_P2;PMS_P1;PMS_P2;Temp;Humidity;BMP_temperature;BMP_pressure;BME280_temperature;BME280_humidity;BME280_pressure;Samples;Min_cycle;Max_cycle;Signal;HPM_P1;HPM_P2
2023/02/14 00:01:11;;;;;;;70.90;16.80;;;0.20;99.90;;;;;;5026776;28;20479;-60
2023/02/14 00:03:37;;;;;;;73.70;16.37;;;0.30;99.90;;;;;;5026182;28;20651;-59
2023/02/14 00:06:08;;;;;;;58.53;15.03;;;0.20;99.90;;;;;;5036969;28;20510;-59
2023/02/14 00:08:34;;;;;;;42.47;14.17;;;0.20;99.90;;;;;;5024974;28;20203;-59
2023/02/14 00:11:00;;;;;;;31.47;12.07;;;0.20;99.90;;;;;;5030296;28;20462;-59
2023/02/14 00:13:25;;;;;;;75.43;12.83;;;0.20;99.90;;;;;;5027761;28;20472;-59
2023/02/14 00:15:51;;;;;;;128.70;17.20;;;0.20;99.90;;;;;;5038445;28;20292;-60
2023/02/14 00:18:16;;;;;;;72.00;15.60;;;0.20;99.90;;;;;;5034682;28;20185;-60
2023/02/14 00:20:42;;;;;;;96.40;17.53;;;0.10;99.90;;;;;;5026731;28;20687;-57
2023/02/14 00:23:08;;;;;;;62.60;14.97;;;0.10;99.90;;;;;;5035854;28;20181;-59
2023/02/14 00:25:33;;;;;;;28.33;11.23;;;0.10;99.90;;;;;;5029669;28;20236;-58
2023/02/14 00:27:59;;;;;;;23.80;11.60;;;0.00;99.90;;;;;;5027909;28;20216;-60
2023/02/14 00:30:24;;;;;;;56.50;15.83;;;0.00;99.90;;;;;;5028619;28;20186;-59
2023/02/14 00:32:50;;;;;;;49.30;14.60;;;0.00;99.90;;;;;;5030087;28;20182;-59
2023/02/14 00:35:16;;;;;;;33.00;10.60;;;0.00;99.90;;;;;;5037769;28;20208;-60
2023/02/14 00:37:41;;;;;;;30.73;11.90;;;0.00;99.90;;;;;;5027339;28;20182;-59
2023/02/14 00:40:08;;;;;;;122.50;14.60;;;0.00;99.90;;;;;;5033308;28;20441;-60
2023/02/14 00:42:33;;;;;;;91.53;14.73;;;0.00;99.90;;;;;;5029293;28;20201;-59
2023/02/14 00:44:59;;;;;;;51.67;12.93;;;-0.10;99.90;;;;;;5029577;28;21163;-59
2023/02/14 00:47:25;;;;;;;30.63;11.80;;;-0.10;99.90;;;;;;5025255;28;20824;-59
2023/02/14 00:49:51;;;;;;;169.70;16.43;;;-0.10;99.90;;;;;;5026966;28;20636;-59
2023/02/14 00:52:16;;;;;;;43.83;13.07;;;-0.10;99.90;;;;;;5029464;28;20692;-60
2023/02/14 00:54:42;;;;;;;25.93;10.40;;;-0.20;99.90;;;;;;5026958;28;20218;-59
2023/02/14 00:57:07;;;;;;;25.73;12.07;;;-0.20;99.90;;;;;;5011655;28;20587;-59
2023/02/14 00:59:33;;;;;;;48.37;13.10;;;-0.20;99.90;;;;;;5024482;28;20268;-58
2023/02/14 01:01:58;;;;;;;45.57;13.03;;;-0.30;99.90;;;;;;5029882;28;20202;-59
2023/02/14 01:04:24;;;;;;;85.83;14.07;;;-0.30;99.90;;;;;;5035651;28;20578;-59
2023/02/14 01:06:50;;;;;;;64.20;12.70;;;-0.20;99.90;;;;;;5026648;28;20206;-59
2023/02/14 01:09:15;;;;;;;110.77;15.17;;;-0.20;99.90;;;;;;5024552;28;20842;-59
2023/02/14 01:11:41;;;;;;;96.40;13.17;;;-0.30;99.90;;;;;;5022840;28;20182;-60
2023/02/14 01:14:06;;;;;;;35.13;11.77;;;-0.30;99.90;;;;;;5024010;28;20174;-60
2023/02/14 01:16:32;;;;;;;33.10;13.20;;;-0.30;99.90;;;;;;5028447;28;20206;-59
2023/02/14 01:18:59;;;;;;;38.87;12.30;;;-0.40;99.90;;;;;;5032459;28;20646;-59
2023/02/14 01:21:28;;;;;;;32.63;11.57;;;-0.40;99.90;;;;;;5032549;28;20190;-59
2023/02/14 01:23:55;;;;;;;212.90;16.77;;;-0.40;99.90;;;;;;5027546;28;20929;-60
2023/02/14 01:26:22;;;;;;;35.90;11.93;;;-0.40;99.90;;;;;;5032107;28;20488;-59
2023/02/14 01:28:48;;;;;;;29.23;11.57;;;-0.40;99.90;;;;;;5027770;28;20965;-60
2023/02/14 01:31:23;;;;;;;29.17;11.30;;;-0.40;99.90;;;;;;5032789;28;20440;-59
2023/02/14 01:33:49;;;;;;;65.87;15.10;;;-0.40;99.90;;;;;;5032335;28;20429;-59
2023/02/14 01:36:21;;;;;;;98.20;14.40;;;-0.40;99.90;;;;;;5027856;28;20545;-59
2023/02/14 01:38:51;;;;;;;41.13;13.90;;;-0.50;99.90;;;;;;5042150;28;20437;-59
2023/02/14 01:41:17;;;;;;;51.17;15.27;;;-0.50;99.90;;;;;;5034765;28;20448;-59
2023/02/14 01:43:58;;;;;;;103.90;18.70;;;-0.50;99.90;;;;;;5038709;28;20494;-59
2023/02/14 01:46:26;;;;;;;43.77;15.57;;;-0.50;99.90;;;;;;5031960;28;20464;-59
2023/02/14 01:48:57;;;;;;;34.47;13.37;;;-0.50;99.90;;;;;;5033835;28;21060;-59
2023/02/14 01:51:23;;;;;;;53.10;15.03;;;-0.50;99.90;;;;;;5032466;28;20436;-59
2023/02/14 01:53:51;;;;;;;61.73;15.57;;;-0.50;99.90;;;;;;5031265;28;20494;-59
2023/02/14 01:56:24;;;;;;;62.97;14.27;;;-0.50;99.90;;;;;;5026567;28;20496;-59
2023/02/14 01:58:53;;;;;;;77.63;15.33;;;-0.50;99.90;;;;;;5022478;28;21064;-60
2023/02/14 02:01:20;;;;;;;52.73;14.67;;;-0.60;99.90;;;;;;5029536;28;20451;-60
2023/02/14 02:04:10;;;;;;;30.37;13.40;;;-0.60;99.90;;;;;;5025195;28;20437;-59
2023/02/14 02:06:47;;;;;;;42.87;13.67;;;-0.60;99.90;;;;;;5017281;28;20555;-59
2023/02/14 02:09:18;;;;;;;41.87;12.10;;;-0.60;99.90;;;;;;5027394;28;20563;-60
2023/02/14 02:11:44;;;;;;;28.83;11.63;;;-0.70;99.90;;;;;;5028600;28;20432;-61
2023/02/14 02:14:15;;;;;;;30.43;12.83;;;-0.70;99.90;;;;;;5023285;28;20441;-59
2023/02/14 02:16:52;;;;;;;60.47;14.10;;;-0.70;99.90;;;;;;5026525;28;20190;-60
2023/02/14 02:19:21;;;;;;;54.57;14.47;;;-0.70;99.90;;;;;;5026745;28;20432;-60
2023/02/14 02:22:02;;;;;;;67.23;12.13;;;-0.70;99.90;;;;;;5027055;28;20807;-59
2023/02/14 02:24:52;;;;;;;25.10;10.47;;;-0.80;99.90;;;;;;5028723;28;20430;-59
2023/02/14 02:27:44;;;;;;;23.23;11.10;;;-0.80;99.90;;;;;;5024905;28;20467;-59
2023/02/14 02:30:31;;;;;;;30.80;12.37;;;-0.80;99.90;;;;;;5025288;28;20437;-59
2023/02/14 02:33:22;;;;;;;40.07;14.80;;;-0.80;99.90;;;;;;5027299;28;20478;-59
2023/02/14 02:36:09;;;;;;;52.00;15.87;;;-0.80;99.90;;;;;;5006685;28;20464;-59
2023/02/14 02:39:18;;;;;;;55.87;15.57;;;-0.80;99.90;;;;;;5033290;28;20450;-60
2023/02/14 02:42:20;;;;;;;50.80;15.10;;;-0.80;99.90;;;;;;5029844;28;20452;-58
2023/02/14 02:45:18;;;;;;;55.57;13.00;;;-0.80;99.90;;;;;;5021151;28;20877;-59
2023/02/14 02:47:50;;;;;;;87.97;14.40;;;-0.80;99.90;;;;;;5025676;28;20495;-58
2023/02/14 02:53:33;;;;;;;49.13;12.40;;;-0.90;99.90;;;;;;5026225;28;20502;-59
2023/02/14 02:59:03;;;;;;;23.43;10.20;;;-1.00;99.90;;;;;;5025940;28;20442;-60
2023/02/14 03:01:34;;;;;;;30.13;12.63;;;-1.00;99.90;;;;;;5025888;28;20446;-61
2023/02/14 03:06:54;;;;;;;58.27;13.00;;;-1.00;99.90;;;;;;5034411;28;20507;-59
2023/02/14 03:09:19;;;;;;;60.17;12.73;;;-1.00;99.90;;;;;;5042797;28;20432;-59
2023/02/14 03:11:59;;;;;;;47.37;15.07;;;-1.00;99.90;;;;;;5033391;28;20438;-59
2023/02/14 03:14:34;;;;;;;37.23;13.70;;;-1.00;99.90;;;;;;5031413;28;20181;-59
2023/02/14 03:17:25;;;;;;;49.37;12.63;;;-1.00;99.90;;;;;;5021610;28;20437;-59
2023/02/14 03:20:17;;;;;;;40.73;13.10;;;-1.00;99.90;;;;;;5029472;28;20439;-59
2023/02/14 03:22:48;;;;;;;61.33;13.47;;;-1.00;99.90;;;;;;5009593;28;20452;-59
2023/02/14 03:25:32;;;;;;;44.93;13.97;;;-1.00;99.90;;;;;;5039167;28;20550;-59
2023/02/14 03:28:23;;;;;;;61.93;13.77;;;-1.10;99.90;;;;;;5037752;28;20502;-59
2023/02/14 03:31:11;;;;;;;40.70;12.10;;;-1.10;99.90;;;;;;5021787;28;20442;-59
2023/02/14 03:33:49;;;;;;;29.23;13.10;;;-1.10;99.90;;;;;;5024915;28;20547;-60
2023/02/14 03:36:17;;;;;;;36.03;12.23;;;-1.20;99.90;;;;;;5023928;28;20451;-60
2023/02/14 03:38:51;;;;;;;28.50;10.70;;;-1.20;99.90;;;;;;5020931;28;20545;-59
2023/02/14 03:41:27;;;;;;;89.87;11.90;;;-1.20;99.90;;;;;;5026685;28;20447;-60
2023/02/14 03:43:57;;;;;;;30.63;10.87;;;-1.20;99.90;;;;;;5030593;28;20936;-59
2023/02/14 03:46:33;;;;;;;35.87;10.73;;;-1.20;99.90;;;;;;5033013;28;20809;-59
2023/02/14 03:49:03;;;;;;;40.40;9.97;;;-1.20;99.90;;;;;;5026604;28;20498;-59
2023/02/14 03:51:33;;;;;;;52.00;11.20;;;-1.30;99.90;;;;;;5023826;28;20431;-59
2023/02/14 03:54:01;;;;;;;32.23;10.30;;;-1.30;99.90;;;;;;5032177;28;20434;-59
2023/02/14 03:56:52;;;;;;;27.20;9.80;;;-1.30;99.90;;;;;;5026993;28;20527;-59
2023/02/14 03:59:25;;;;;;;29.57;10.20;;;-1.30;99.90;;;;;;5025816;28;20429;-59
2023/02/14 04:02:12;;;;;;;240.10;14.57;;;-1.40;99.90;;;;;;5014599;28;20556;-60
2023/02/14 04:04:46;;;;;;;111.80;11.87;;;-1.40;99.90;;;;;;5027983;28;20538;-59
2023/02/14 04:07:14;;;;;;;104.63;13.67;;;-1.40;99.90;;;;;;5021738;28;21117;-59
2023/02/14 04:09:40;;;;;;;115.83;12.73;;;-1.50;99.90;;;;;;5025451;28;20436;-59
2023/02/14 04:12:06;;;;;;;95.43;12.13;;;-1.50;99.90;;;;;;5023850;28;20436;-57
2023/02/14 04:14:32;;;;;;;45.73;10.50;;;-1.50;99.90;;;;;;5026161;28;20209;-60
2023/02/14 04:19:42;;;;;;;33.67;10.60;;;-1.50;99.90;;;;;;5021981;28;20822;-59
2023/02/14 04:22:07;;;;;;;28.80;9.67;;;-1.50;99.90;;;;;;5026575;28;20532;-59
2023/02/14 04:24:33;;;;;;;76.63;12.10;;;-1.50;99.90;;;;;;5025783;28;20178;-59
2023/02/14 04:27:10;;;;;;;29.83;13.57;;;-1.50;99.90;;;;;;5028344;28;20247;-60
2023/02/14 04:29:40;;;;;;;34.00;14.00;;;-1.50;99.90;;;;;;5027931;28;20170;-59
2023/02/14 04:32:11;;;;;;;238.20;22.00;;;-1.50;99.90;;;;;;5027206;28;20416;-59
2023/02/14 04:34:38;;;;;;;47.23;20.00;;;-1.50;99.90;;;;;;5025115;28;20518;-59
2023/02/14 04:37:05;;;;;;;48.10;13.87;;;-1.50;99.90;;;;;;5024426;28;20483;-58
2023/02/14 04:39:30;;;;;;;35.27;13.70;;;-1.50;99.90;;;;;;5027583;28;20427;-59
2023/02/14 04:41:56;;;;;;;44.87;13.13;;;-1.50;99.90;;;;;;5025226;28;20956;-59
2023/02/14 04:44:22;;;;;;;43.13;13.50;;;-1.50;99.90;;;;;;5025721;28;20174;-59
2023/02/14 04:46:48;;;;;;;47.00;14.47;;;-1.50;99.90;;;;;;5010638;28;21031;-59
2023/02/14 04:49:13;;;;;;;55.67;16.70;;;-1.50;99.90;;;;;;5023834;28;20441;-59
2023/02/14 04:51:39;;;;;;;76.27;14.40;;;-1.60;99.90;;;;;;5017803;28;20173;-60
2023/02/14 04:54:05;;;;;;;73.17;12.90;;;-1.60;99.90;;;;;;5024236;28;20168;-59
2023/02/14 04:56:30;;;;;;;92.70;13.60;;;-1.60;99.90;;;;;;5021599;28;20871;-60
2023/02/14 04:58:56;;;;;;;83.33;13.70;;;-1.60;99.90;;;;;;5022431;28;20690;-60
2023/02/14 05:01:22;;;;;;;130.40;15.10;;;-1.60;99.90;;;;;;5022482;28;20193;-60
2023/02/14 05:03:47;;;;;;;162.27;16.50;;;-1.70;99.90;;;;;;5025563;28;20278;-61
2023/02/14 05:06:13;;;;;;;112.27;15.13;;;-1.70;99.90;;;;;;5024023;28;20193;-59
2023/02/14 05:08:38;;;;;;;62.87;12.73;;;-1.80;99.90;;;;;;5027481;28;20213;-60
2023/02/14 05:11:04;;;;;;;74.27;13.10;;;-1.80;99.90;;;;;;5033653;28;20186;-59
2023/02/14 05:13:31;;;;;;;66.87;13.37;;;-1.80;99.90;;;;;;5014874;28;20198;-57
2023/02/14 05:15:57;;;;;;;35.47;12.00;;;-1.80;99.90;;;;;;5017619;28;20662;-60
2023/02/14 05:18:23;;;;;;;28.80;10.77;;;-1.80;99.90;;;;;;5009270;28;20484;-61
2023/02/14 05:20:53;;;;;;;41.97;11.83;;;-1.80;99.90;;;;;;5027395;28;20506;-60
2023/02/14 05:23:19;;;;;;;115.00;13.17;;;-1.70;99.90;;;;;;5020719;28;20441;-61
2023/02/14 05:25:47;;;;;;;32.27;11.10;;;-1.70;99.90;;;;;;5020624;28;20475;-61
2023/02/14 05:28:13;;;;;;;31.60;12.80;;;-1.80;99.90;;;;;;5024458;28;20460;-61
2023/02/14 05:30:39;;;;;;;32.60;13.47;;;-1.70;99.90;;;;;;5023496;28;20463;-62
2023/02/14 05:33:05;;;;;;;45.40;16.27;;;-1.70;99.90;;;;;;5012102;28;20435;-60
2023/02/14 05:35:30;;;;;;;36.50;14.93;;;-1.70;99.90;;;;;;5024125;28;20205;-59
2023/02/14 05:37:56;;;;;;;39.20;14.33;;;-1.70;99.90;;;;;;5021489;28;20444;-56
2023/02/14 05:40:22;;;;;;;37.03;15.10;;;-1.70;99.90;;;;;;5022502;28;20189;-60
2023/02/14 05:42:47;;;;;;;91.30;16.33;;;-1.70;99.90;;;;;;5017006;28;20268;-61
2023/02/14 05:45:13;;;;;;;53.23;12.43;;;-1.60;99.90;;;;;;5022545;28;20767;-60
2023/02/14 05:47:39;;;;;;;34.87;12.77;;;-1.60;99.90;;;;;;5020722;28;20205;-60
2023/02/14 05:50:06;;;;;;;31.50;13.77;;;-1.60;99.90;;;;;;5026993;28;20800;-60
2023/02/14 05:52:31;;;;;;;30.23;12.70;;;-1.60;99.90;;;;;;5011402;28;20265;-60
2023/02/14 05:54:57;;;;;;;24.67;10.97;;;-1.70;99.90;;;;;;5029840;28;20544;-59
2023/02/14 05:57:22;;;;;;;35.40;11.80;;;-1.60;99.90;;;;;;5026672;28;20200;-59
2023/02/14 05:59:48;;;;;;;20.10;10.60;;;-1.70;99.90;;;;;;5025182;28;20186;-61
2023/02/14 06:02:14;;;;;;;20.67;11.30;;;-1.70;99.90;;;;;;5030417;28;20183;-59
2023/02/14 06:04:40;;;;;;;20.00;10.80;;;-1.70;99.90;;;;;;5020981;28;20213;-62
2023/02/14 06:07:06;;;;;;;22.03;10.50;;;-1.70;99.90;;;;;;5028214;28;20479;-61
2023/02/14 06:09:32;;;;;;;20.77;11.57;;;-1.60;99.90;;;;;;5028488;28;20435;-60
2023/02/14 06:11:57;;;;;;;25.30;10.00;;;-1.60;99.90;;;;;;5015418;28;20475;-60
2023/02/14 06:14:23;;;;;;;25.17;10.83;;;-1.60;99.90;;;;;;5017701;28;24329;-61
2023/02/14 06:16:49;;;;;;;23.23;11.80;;;-1.60;99.90;;;;;;5027427;28;20174;-60
2023/02/14 06:19:15;;;;;;;33.77;11.93;;;-1.60;99.90;;;;;;5033780;28;20942;-60
2023/02/14 06:21:41;;;;;;;27.80;12.73;;;-1.60;99.90;;;;;;5032918;28;20658;-60
2023/02/14 06:24:06;;;;;;;25.47;11.23;;;-1.60;99.90;;;;;;5023875;28;20638;-61
2023/02/14 06:26:34;;;;;;;36.07;13.10;;;-1.60;99.90;;;;;;5022640;28;20200;-59
2023/02/14 06:29:00;;;;;;;37.33;11.90;;;-1.50;99.90;;;;;;5027066;28;20868;-61
2023/02/14 06:31:26;;;;;;;34.83;13.77;;;-1.50;99.90;;;;;;5027118;28;20440;-60
2023/02/14 06:33:53;;;;;;;27.83;12.07;;;-1.50;99.90;;;;;;5027304;28;21134;-55
2023/02/14 06:36:20;;;;;;;34.10;12.17;;;-1.50;99.90;;;;;;5025421;28;20198;-62
2023/02/14 06:38:46;;;;;;;53.83;15.60;;;-1.50;99.90;;;;;;5021910;28;20436;-62
2023/02/14 06:41:16;;;;;;;74.73;15.87;;;-1.50;99.90;;;;;;5021726;28;20471;-61
2023/02/14 06:43:43;;;;;;;70.57;16.00;;;-1.50;99.90;;;;;;5012742;28;20472;-61
2023/02/14 06:46:09;;;;;;;44.80;15.70;;;-1.40;99.90;;;;;;5035301;28;20539;-61
2023/02/14 06:48:35;;;;;;;58.00;17.50;;;-1.40;99.90;;;;;;5029670;28;20551;-59
2023/02/14 06:51:00;;;;;;;52.50;16.60;;;-1.40;99.90;;;;;;5037578;28;20523;-61
2023/02/14 06:53:26;;;;;;;62.30;15.93;;;-1.40;99.90;;;;;;5030467;28;20193;-60
2023/02/14 06:55:52;;;;;;;49.93;15.07;;;-1.40;99.90;;;;;;5045905;28;20220;-61
2023/02/14 06:58:17;;;;;;;49.13;16.87;;;-1.40;99.90;;;;;;5023628;28;20200;-61
2023/02/14 07:00:43;;;;;;;57.50;17.30;;;-1.40;99.90;;;;;;5027368;28;20182;-61
2023/02/14 07:03:09;;;;;;;42.63;15.50;;;-1.50;99.90;;;;;;5031340;28;20182;-60
2023/02/14 07:05:35;;;;;;;50.37;17.17;;;-1.40;99.90;;;;;;5028973;28;20281;-60
2023/02/14 07:08:00;;;;;;;62.60;15.90;;;-1.40;99.90;;;;;;5029458;28;20198;-61
2023/02/14 07:10:26;;;;;;;75.80;17.97;;;-1.40;99.90;;;;;;5030148;28;20433;-61
2023/02/14 07:12:52;;;;;;;75.43;17.83;;;-1.40;99.90;;;;;;5045454;28;21513;-61
2023/02/14 07:15:17;;;;;;;66.23;18.20;;;-1.50;99.90;;;;;;5026378;28;20278;-61
2023/02/14 07:17:43;;;;;;;47.77;18.57;;;-1.50;99.90;;;;;;5026432;28;20181;-61
2023/02/14 07:20:11;;;;;;;116.27;18.07;;;-1.50;99.90;;;;;;5032363;28;20685;-60
2023/02/14 07:22:38;;;;;;;57.27;19.70;;;-1.40;99.90;;;;;;5035804;28;20448;-61
2023/02/14 07:25:05;;;;;;;43.03;17.70;;;-1.40;99.90;;;;;;5035013;28;20452;-61
2023/02/14 07:27:31;;;;;;;54.13;16.57;;;-1.40;99.90;;;;;;5030767;28;20543;-61
2023/02/14 07:29:56;;;;;;;68.67;17.20;;;-1.40;99.90;;;;;;5029123;28;20793;-60
2023/02/14 07:32:22;;;;;;;42.20;17.60;;;-1.40;99.90;;;;;;5024094;28;20448;-61
2023/02/14 07:34:48;;;;;;;51.17;19.00;;;-1.40;99.90;;;;;;5028069;28;20205;-60
2023/02/14 07:37:15;;;;;;;54.03;15.77;;;-1.40;99.90;;;;;;5028700;28;20729;-61
2023/02/14 07:39:41;;;;;;;54.33;16.10;;;-1.40;99.90;;;;;;5030715;28;20408;-60
2023/02/14 07:42:07;;;;;;;47.37;17.10;;;-1.40;99.90;;;;;;5015775;28;20494;-61
2023/02/14 07:44:33;;;;;;;39.13;16.70;;;-1.40;99.90;;;;;;5030267;28;20622;-61
2023/02/14 07:46:58;;;;;;;31.70;14.47;;;-1.30;99.90;;;;;;5028417;28;20180;-61
2023/02/14 07:49:24;;;;;;;51.30;17.43;;;-1.30;99.90;;;;;;5025731;28;20924;-60
2023/02/14 07:51:50;;;;;;;41.30;16.57;;;-1.30;99.90;;;;;;5032479;28;20272;-60
2023/02/14 07:54:15;;;;;;;44.50;17.00;;;-1.30;99.90;;;;;;5035136;28;20260;-60
2023/02/14 07:56:41;;;;;;;41.90;16.87;;;-1.30;99.90;;;;;;5032194;28;20274;-61
2023/02/14 07:59:06;;;;;;;39.00;15.63;;;-1.20;99.90;;;;;;5044329;28;20173;-62
2023/02/14 08:01:32;;;;;;;44.00;15.73;;;-1.20;99.90;;;;;;5028769;28;20239;-60
2023/02/14 08:03:58;;;;;;;39.43;16.83;;;-1.20;99.90;;;;;;5031291;28;20205;-60
2023/02/14 08:06:24;;;;;;;42.00;15.70;;;-1.20;99.90;;;;;;5032357;28;20289;-60
2023/02/14 08:08:50;;;;;;;41.30;16.40;;;-1.20;99.90;;;;;;5028916;28;20540;-60
2023/02/14 08:12:57;;;;;;;63.03;16.87;;;-1.10;99.90;;;;;;5036625;28;20442;-61
2023/02/14 08:14:04;;;;;;;46.23;17.00;;;-1.10;99.90;;;;;;5026640;28;20829;-59
2023/02/14 08:16:32;;;;;;;46.37;18.07;;;-1.10;99.90;;;;;;5025093;28;21178;-60
2023/02/14 08:18:58;;;;;;;46.77;19.47;;;-1.10;99.90;;;;;;5022295;28;20514;-60
2023/02/14 08:21:24;;;;;;;49.90;18.30;;;-1.10;99.90;;;;;;5024151;28;20517;-61
2023/02/14 08:23:50;;;;;;;44.77;18.47;;;-1.00;99.90;;;;;;5027308;28;20414;-62
2023/02/14 08:26:16;;;;;;;55.87;22.13;;;-1.00;99.90;;;;;;5034089;28;20758;-61
2023/02/14 08:28:42;;;;;;;44.60;19.40;;;-0.90;99.90;;;;;;5029933;28;20193;-61
2023/02/14 08:31:08;;;;;;;50.87;18.90;;;-0.90;99.90;;;;;;5025516;28;20489;-60
2023/02/14 08:33:34;;;;;;;43.23;18.47;;;-0.80;99.90;;;;;;5027222;28;20432;-61
2023/02/14 08:35:59;;;;;;;42.70;18.93;;;-0.70;99.90;;;;;;5031848;28;20443;-61
2023/02/14 08:38:25;;;;;;;49.70;20.00;;;-0.60;99.90;;;;;;5026948;28;20183;-60
2023/02/14 08:40:51;;;;;;;42.10;18.37;;;-0.60;99.90;;;;;;5028513;28;20177;-60
2023/02/14 08:43:16;;;;;;;54.13;19.40;;;-0.50;99.90;;;;;;5027520;28;20237;-60
2023/02/14 08:45:42;;;;;;;71.33;19.73;;;-0.50;99.90;;;;;;5031828;28;20193;-60
2023/02/14 08:48:10;;;;;;;57.23;19.60;;;-0.50;99.90;;;;;;5016558;28;20190;-61
2023/02/14 08:50:37;;;;;;;56.67;21.50;;;-0.40;99.90;;;;;;5028432;28;20187;-59
2023/02/14 08:53:10;;;;;;;44.20;19.53;;;-0.40;99.90;;;;;;5032670;28;20428;-61
2023/02/14 08:55:36;;;;;;;63.27;20.63;;;-0.40;99.90;;;;;;5027740;28;20452;-60
2023/02/14 08:58:03;;;;;;;53.60;20.40;;;-0.40;99.90;;;;;;5027318;28;20408;-60
2023/02/14 09:00:29;;;;;;;55.97;21.63;;;-0.30;99.90;;;;;;5028856;28;20846;-60
2023/02/14 09:02:55;;;;;;;66.50;25.03;;;-0.20;99.90;;;;;;5035332;28;20424;-60
2023/02/14 09:05:22;;;;;;;75.13;24.90;;;-0.20;99.90;;;;;;5027635;28;20455;-60
2023/02/14 09:07:48;;;;;;;65.30;23.40;;;-0.10;99.90;;;;;;5028753;28;20229;-61
2023/02/14 09:10:14;;;;;;;67.63;23.37;;;0.00;99.90;;;;;;5025028;28;20435;-61
2023/02/14 09:12:40;;;;;;;68.20;23.67;;;0.00;99.90;;;;;;5029270;28;20515;-60
2023/02/14 09:15:08;;;;;;;70.40;21.70;;;0.10;99.90;;;;;;5013800;28;20258;-60
2023/02/14 09:17:34;;;;;;;60.67;21.03;;;0.20;99.90;;;;;;5029075;28;20428;-62
2023/02/14 09:20:00;;;;;;;55.50;22.47;;;0.30;99.90;;;;;;5023813;28;20432;-61
2023/02/14 09:22:26;;;;;;;64.93;21.90;;;0.40;99.90;;;;;;5024069;28;20437;-62
2023/02/14 09:24:51;;;;;;;58.73;21.70;;;0.40;99.90;;;;;;5028894;28;20814;-60
2023/02/14 09:27:17;;;;;;;46.43;20.87;;;0.40;99.90;;;;;;5032457;28;20588;-60
2023/02/14 09:29:43;;;;;;;45.27;19.07;;;0.50;99.90;;;;;;5026967;28;20194;-61
2023/02/14 09:32:08;;;;;;;42.00;19.60;;;0.60;99.90;;;;;;5027294;28;20215;-61
2023/02/14 09:34:34;;;;;;;42.67;17.67;;;0.70;99.90;;;;;;5025126;28;20182;-60
2023/02/14 09:39:44;;;;;;;32.47;16.13;;;0.80;99.90;;;;;;5036519;28;20427;-60
2023/02/14 09:42:40;;;;;;;41.93;17.70;;;0.90;99.90;;;;;;5028327;28;20499;-60
2023/02/14 09:45:09;;;;;;;46.20;19.30;;;1.00;99.90;;;;;;5025077;28;20277;-60
2023/02/14 09:48:00;;;;;;;40.63;17.60;;;1.00;99.90;;;;;;5035152;28;20517;-60
2023/02/14 09:50:46;;;;;;;40.10;17.77;;;1.20;99.90;;;;;;5024141;28;20498;-61
2023/02/14 09:53:20;;;;;;;42.20;18.70;;;1.40;99.90;;;;;;5021625;28;20433;-60
2023/02/14 09:55:56;;;;;;;45.50;21.00;;;1.60;99.90;;;;;;5028566;28;21166;-60
2023/02/14 09:58:28;;;;;;;45.70;19.03;;;1.70;99.90;;;;;;5021603;28;20422;-61
2023/02/14 10:00:58;;;;;;;40.70;19.00;;;1.80;99.90;;;;;;5023689;28;20432;-62
2023/02/14 10:03:35;;;;;;;43.07;19.43;;;1.90;99.90;;;;;;5030764;28;20425;-60
2023/02/14 10:06:18;;;;;;;36.23;17.87;;;2.00;99.90;;;;;;5024801;28;20462;-60
2023/02/14 10:09:06;;;;;;;49.60;20.13;;;2.10;99.90;;;;;;5031272;28;20487;-61
2023/02/14 10:11:33;;;;;;;36.77;18.07;;;2.30;99.90;;;;;;5034529;28;20441;-62
2023/02/14 10:14:10;;;;;;;41.20;19.00;;;2.50;99.90;;;;;;5027364;28;20529;-60
2023/02/14 10:16:47;;;;;;;37.30;18.53;;;2.70;99.90;;;;;;5040161;28;20462;-60
2023/02/14 10:19:18;;;;;;;41.67;20.10;;;3.00;99.90;;;;;;5036299;28;20455;-61
2023/02/14 10:21:51;;;;;;;45.70;20.40;;;3.10;99.90;;;;;;5043290;28;20437;-60
2023/02/14 10:24:32;;;;;;;52.83;22.77;;;3.30;99.90;;;;;;5029873;28;20521;-61
2023/02/14 10:27:33;;;;;;;49.23;23.03;;;3.40;99.90;;;;;;5024518;28;20433;-60
2023/02/14 10:29:59;;;;;;;44.07;20.90;;;3.50;99.90;;;;;;5018691;28;20580;-61
2023/02/14 10:32:37;;;;;;;43.77;22.97;;;3.60;99.90;;;;;;5030541;28;20501;-60
2023/02/14 10:35:21;;;;;;;48.83;21.60;;;3.80;99.90;;;;;;5032211;28;20433;-60
2023/02/14 10:37:57;;;;;;;49.00;23.30;;;4.00;99.90;;;;;;5023162;28;20430;-61
2023/02/14 10:40:34;;;;;;;46.00;22.50;;;4.20;99.90;;;;;;5014973;28;20433;-60
2023/02/14 10:43:31;;;;;;;47.67;22.43;;;4.40;99.90;;;;;;5023950;28;20449;-61
2023/02/14 10:46:02;;;;;;;46.53;22.90;;;4.60;99.90;;;;;;5003746;28;20430;-61
2023/02/14 10:49:09;;;;;;;55.43;25.80;;;4.80;99.90;;;;;;5033709;28;20922;-60
2023/02/14 10:52:00;;;;;;;49.67;23.07;;;4.90;99.90;;;;;;5014402;28;21064;-60
2023/02/14 10:54:34;;;;;;;51.57;24.73;;;5.10;99.90;;;;;;5008657;28;20461;-61
2023/02/14 10:57:18;;;;;;;56.40;25.97;;;5.30;99.90;;;;;;5032115;28;20423;-61
2023/02/14 10:59:57;;;;;;;55.47;25.50;;;5.50;99.90;;;;;;5024364;28;20765;-61
2023/02/14 11:02:42;;;;;;;48.17;24.00;;;5.70;99.90;;;;;;5028061;28;20510;-60
2023/02/14 11:05:27;;;;;;;54.47;26.43;;;5.90;99.90;;;;;;5019926;28;20446;-59
2023/02/14 11:07:52;;;;;;;55.33;26.47;;;6.10;99.90;;;;;;5026679;28;20477;-59
2023/02/14 11:10:29;;;;;;;54.30;25.67;;;6.20;99.90;;;;;;5011572;28;20426;-59
2023/02/14 11:12:54;;;;;;;51.80;25.10;;;6.30;99.90;;;;;;5025176;28;20190;-60
2023/02/14 11:15:20;;;;;;;55.70;26.60;;;6.50;99.90;;;;;;5025481;28;20466;-59
2023/02/14 11:17:46;;;;;;;51.17;25.37;;;6.60;99.90;;;;;;5028116;28;20167;-53
2023/02/14 11:20:18;;;;;;;56.37;25.03;;;6.80;99.90;;;;;;5027752;28;20210;-53
2023/02/14 11:22:44;;;;;;;52.80;26.07;;;7.00;99.90;;;;;;5025950;28;20182;-56
2023/02/14 11:25:30;;;;;;;47.70;23.77;;;7.30;99.90;;;;;;5025941;28;20442;-54
2023/02/14 11:28:06;;;;;;;50.37;25.13;;;7.60;99.90;;;;;;5026339;28;20640;-59
2023/02/14 11:30:42;;;;;;;53.77;25.63;;;7.90;99.90;;;;;;5024338;28;20865;-59
2023/02/14 11:33:32;;;;;;;53.73;25.50;;;8.10;99.90;;;;;;5026126;28;20424;-60
2023/02/14 11:35:59;;;;;;;46.17;24.73;;;8.20;99.90;;;;;;5023036;28;20807;-58
2023/02/14 11:38:33;;;;;;;47.03;22.70;;;8.50;99.90;;;;;;5021081;28;20954;-61
2023/02/14 11:40:59;;;;;;;50.03;25.47;;;8.80;99.90;;;;;;5010657;28;20504;-62
2023/02/14 11:43:44;;;;;;;54.13;25.47;;;9.00;99.90;;;;;;5018212;28;20932;-61
2023/02/14 11:46:18;;;;;;;57.77;24.07;;;9.30;99.80;;;;;;5022172;28;20552;-61
2023/02/14 11:49:03;;;;;;;48.17;24.53;;;9.60;96.80;;;;;;5026378;28;20508;-61
2023/02/14 11:51:40;;;;;;;53.60;23.50;;;9.90;95.00;;;;;;5003873;28;20463;-61
2023/02/14 11:54:31;;;;;;;40.17;23.10;;;10.20;93.50;;;;;;5023400;28;20425;-61
2023/02/14 11:57:27;;;;;;;45.23;23.57;;;10.50;88.00;;;;;;5002334;28;20434;-61
2023/02/14 11:59:55;;;;;;;41.13;23.33;;;10.90;83.80;;;;;;5019346;28;20438;-61
2023/02/14 12:02:27;;;;;;;44.00;22.73;;;11.30;81.10;;;;;;5025420;28;20423;-61
2023/02/14 12:04:59;;;;;;;40.00;22.90;;;11.70;75.10;;;;;;5022744;28;21000;-61
2023/02/14 12:07:29;;;;;;;40.23;22.40;;;12.10;69.60;;;;;;5016280;28;20970;-61
2023/02/14 12:10:07;;;;;;;36.70;22.53;;;12.50;67.80;;;;;;5027994;28;20423;-61
2023/02/14 12:12:34;;;;;;;37.77;22.97;;;13.00;65.20;;;;;;5029825;28;20435;-62
2023/02/14 12:15:20;;;;;;;40.83;23.43;;;13.70;61.80;;;;;;5027409;28;20528;-62
2023/02/14 12:17:48;;;;;;;35.33;22.47;;;14.40;57.50;;;;;;5025473;28;20434;-60
2023/02/14 12:20:30;;;;;;;37.87;22.90;;;15.00;55.50;;;;;;5027165;28;20441;-63
2023/02/14 12:23:04;;;;;;;35.83;23.20;;;15.60;53.60;;;;;;5025303;28;20533;-61
2023/02/14 12:25:41;;;;;;;35.17;22.63;;;16.10;50.90;;;;;;5023350;28;20470;-64
2023/02/14 12:28:21;;;;;;;36.20;23.63;;;16.60;50.40;;;;;;5028888;28;20449;-63
2023/02/14 12:30:48;;;;;;;34.43;23.00;;;17.20;49.10;;;;;;5023474;28;20432;-62
2023/02/14 12:33:22;;;;;;;29.73;20.20;;;17.60;48.20;;;;;;5017251;28;20466;-64
2023/02/14 12:36:28;;;;;;;30.97;20.93;;;18.10;47.50;;;;;;5020596;28;20485;-60
2023/02/14 12:39:09;;;;;;;29.10;20.60;;;18.60;46.00;;;;;;5018475;28;20531;-61
2023/02/14 12:41:46;;;;;;;32.13;22.50;;;19.10;45.20;;;;;;5019947;28;20445;-61
2023/02/14 12:44:34;;;;;;;31.87;21.00;;;19.30;43.80;;;;;;5020196;28;20562;-60
2023/02/14 12:47:09;;;;;;;31.03;21.13;;;19.70;43.20;;;;;;5023624;28;20818;-62
2023/02/14 12:49:55;;;;;;;31.13;20.60;;;20.10;42.80;;;;;;5022812;28;20429;-60
2023/02/14 12:52:54;;;;;;;31.43;20.73;;;20.40;41.70;;;;;;5020746;28;20175;-62
2023/02/14 12:55:41;;;;;;;30.37;21.33;;;20.70;41.10;;;;;;5016717;28;20333;-60
2023/02/14 12:58:25;;;;;;;29.80;21.70;;;20.90;40.20;;;;;;5018688;28;20179;-61
2023/02/14 13:00:54;;;;;;;26.63;19.80;;;21.10;39.70;;;;;;5024485;28;20210;-61
2023/02/14 13:03:38;;;;;;;27.92;20.15;;;21.30;39.90;;;;;;5025312;28;20195;-61